Time;durP1;ratioP1;P1;durP2;ratioP2;P2;SDS_P1;SDS_P2;PMS_P1;PMS_P2;Temp;Humidity;BMP_temperature;BMP_pressure;BME280_temperature;BME280_humidity;BME280_pressure;Samples;Min_cycle;Max_cycle;Signal;HPM_P1;HPM_P2
2022/12/24 00:01:31;;;;;;;;;;;;;;;25.94;42.38;93962.88;4972639;28;7035;-60
2022/12/24 00:04:18;;;;;;;;;;;;;;;25.93;42.34;93967.63;4958777;28;8273;-60
2022/12/24 00:07:15;;;;;;;;;;;;;;;25.92;42.13;93973.69;4972707;28;7045;-60
2022/12/24 00:09:41;;;;;;;;;;;;;;;25.91;42.27;93963.91;4939236;28;7069;-60
2022/12/24 00:12:08;;;;;;;;;;;;;;;25.90;41.87;93957.66;4928336;28;9326;-60
2022/12/24 00:14:34;;;;;;;;;;;;;;;25.91;42.59;93958.41;4954386;28;7251;-60
2022/12/24 00:17:19;;;;;;;;;;;;;;;25.91;42.41;93953.63;4947238;28;8755;-60
2022/12/24 00:19:50;;;;;;;;;;;;;;;25.93;42.11;93958.63;4935686;28;9037;-60
2022/12/24 00:22:18;;;;;;;;;;;;;;;25.93;42.46;93967.63;4935917;28;7038;-60
2022/12/24 00:24:44;;;;;;;;;;;;;;;25.91;42.18;93975.69;4951733;28;7024;-60
2022/12/24 00:27:10;;;;;;;;;;;;;;;25.93;42.39;93986.16;4936509;28;7185;-60
2022/12/24 00:29:37;;;;;;;;;;;;;;;25.91;42.50;93981.19;4928979;28;7245;-61
2022/12/24 00:32:09;;;;;;;;;;;;;;;25.91;42.19;93991.47;4943139;28;7637;-60
2022/12/24 00:34:38;;;;;;;;;;;;;;;25.90;42.25;93990.72;4943522;28;9379;-60
2022/12/24 00:37:18;;;;;;;;;;;;;;;25.95;41.87;93994.66;4920305;28;9503;-60
2022/12/24 00:40:00;;;;;;;;;;;;;;;25.91;41.90;93997.72;4970605;28;6978;-60
2022/12/24 00:42:32;;;;;;;;;;;;;;;25.91;42.09;93992.22;4970591;28;7153;-60
2022/12/24 00:45:01;;;;;;;;;;;;;;;25.90;42.33;94010.00;4975426;28;7108;-60
2022/12/24 00:47:27;;;;;;;;;;;;;;;25.90;42.67;94009.28;4994286;28;7211;-60
2022/12/24 00:50:01;;;;;;;;;;;;;;;25.90;42.18;94015.50;4994184;28;7241;-60
2022/12/24 00:52:27;;;;;;;;;;;;;;;25.91;42.17;94021.78;4992856;28;7165;-59
2022/12/24 00:55:25;;;;;;;;;;;;;;;25.92;41.78;94018.50;4990860;28;7206;-60
2022/12/24 00:58:02;;;;;;;;;;;;;;;25.93;42.58;94014.47;4962140;28;7098;-60
2022/12/24 01:00:45;;;;;;;;;;;;;;;25.95;42.01;94016.69;4957420;28;7353;-60
2022/12/24 01:03:11;;;;;;;;;;;;;;;25.93;42.29;94033.75;4955651;28;7053;-60
2022/12/24 01:05:52;;;;;;;;;;;;;;;25.93;42.34;94036.53;4956749;28;9701;-60
2022/12/24 01:08:21;;;;;;;;;;;;;;;25.93;42.09;94027.50;4958605;28;7121;-60
2022/12/24 01:10:58;;;;;;;;;;;;;;;25.90;41.61;94032.03;4950502;28;7483;-60
2022/12/24 01:13:28;;;;;;;;;;;;;;;25.93;41.97;94046.78;4955733;28;7284;-61
2022/12/24 01:15:56;;;;;;;;;;;;;;;25.95;42.38;94055.28;4954681;28;7203;-60
2022/12/24 01:18:27;;;;;;;;;;;;;;;25.96;42.12;94065.03;4963996;28;7035;-60
2022/12/24 01:20:58;;;;;;;;;;;;;;;25.96;41.88;94070.56;4965115;28;7022;-60
2022/12/24 01:23:24;;;;;;;;;;;;;;;25.95;42.28;94078.06;4952414;28;7050;-60
2022/12/24 01:25:53;;;;;;;;;;;;;;;25.94;42.49;94081.34;4947050;28;7458;-60
2022/12/24 01:28:23;;;;;;;;;;;;;;;25.95;42.23;94080.84;4967102;28;10324;-60
2022/12/24 01:30:58;;;;;;;;;;;;;;;25.97;42.35;94092.06;4966419;28;7355;-60
2022/12/24 01:33:30;;;;;;;;;;;;;;;25.96;42.47;94071.31;4966856;28;7827;-60
2022/12/24 01:36:08;;;;;;;;;;;;;;;25.94;41.97;94093.13;5006396;28;8373;-60
2022/12/24 01:38:34;;;;;;;;;;;;;;;25.96;42.31;94070.56;4992852;28;9346;-60
2022/12/24 01:43:51;;;;;;;;;;;;;;;25.96;42.21;94068.56;4998402;28;7139;-60
2022/12/24 01:46:28;;;;;;;;;;;;;;;25.97;42.43;94059.00;4990780;28;7344;-60
2022/12/24 01:49:03;;;;;;;;;;;;;;;25.96;42.13;94063.03;5007012;28;9090;-60
2022/12/24 01:52:05;;;;;;;;;;;;;;;25.96;41.64;94046.50;5005086;28;7017;-60
2022/12/24 01:54:52;;;;;;;;;;;;;;;25.95;41.53;94045.00;4957804;28;9109;-60
2022/12/24 01:57:49;;;;;;;;;;;;;;;25.96;42.40;94052.03;4961443;28;7033;-60
2022/12/24 02:00:44;;;;;;;;;;;;;;;25.96;41.60;94046.50;4920159;29;6977;-61
2022/12/24 02:03:24;;;;;;;;;;;;;;;25.96;41.74;94052.03;4893756;29;9062;-60
2022/12/24 02:06:00;;;;;;;;;;;;;;;25.96;41.68;94071.31;4892553;29;7594;-60
2022/12/24 02:08:41;;;;;;;;;;;;;;;25.95;42.07;94074.56;4895126;29;7117;-60
2022/12/24 02:11:13;;;;;;;;;;;;;;;25.95;42.23;94089.09;4876943;29;7207;-60
2022/12/24 02:13:46;;;;;;;;;;;;;;;25.94;41.60;94090.38;4881736;29;7477;-60
2022/12/24 02:16:49;;;;;;;;;;;;;;;25.95;42.12;94094.59;4892164;29;7218;-60
2022/12/24 02:19:35;;;;;;;;;;;;;;;25.94;42.24;94100.66;4891544;29;7415;-60
2022/12/24 02:22:06;;;;;;;;;;;;;;;25.93;41.66;94088.88;4872301;29;7118;-60
2022/12/24 02:24:34;;;;;;;;;;;;;;;25.92;42.53;94081.88;4876213;29;7067;-60
2022/12/24 02:27:18;;;;;;;;;;;;;;;25.92;41.87;94090.16;4890355;29;7346;-59
2022/12/24 02:30:05;;;;;;;;;;;;;;;25.90;41.99;94087.16;4890731;29;9306;-60
2022/12/24 02:32:52;;;;;;;;;;;;;;;25.90;42.54;94100.19;4855282;29;7277;-60
2022/12/24 02:36:17;;;;;;;;;;;;;;;25.89;41.85;94102.19;4860673;29;9324;-60
2022/12/24 02:39:08;;;;;;;;;;;;;;;25.89;42.18;94107.72;4830206;29;8651;-60
2022/12/24 02:42:05;;;;;;;;;;;;;;;25.88;42.14;94089.69;4864460;29;9554;-60
2022/12/24 02:45:22;;;;;;;;;;;;;;;25.89;42.11;94085.66;4863606;29;9064;-60
2022/12/24 02:48:05;;;;;;;;;;;;;;;25.88;41.70;94091.72;4851945;29;7273;-60
2022/12/24 02:50:37;;;;;;;;;;;;;;;25.91;41.76;94109.94;4850227;29;9089;-60
2022/12/24 02:53:20;;;;;;;;;;;;;;;25.92;42.37;94122.47;4826475;29;7514;-60
2022/12/24 02:56:05;;;;;;;;;;;;;;;25.91;41.78;94116.22;4832218;29;7392;-60
2022/12/24 02:58:37;;;;;;;;;;;;;;;25.91;41.79;94099.66;4823878;29;7307;-60
2022/12/24 03:01:43;;;;;;;;;;;;;;;25.90;42.18;94114.69;4825421;29;7369;-60
2022/12/24 03:04:39;;;;;;;;;;;;;;;25.89;41.81;94121.50;4824459;29;7270;-60
2022/12/24 03:07:50;;;;;;;;;;;;;;;25.91;41.55;94121.72;4855834;29;7177;-60
2022/12/24 03:10:55;;;;;;;;;;;;;;;25.91;41.31;94126.47;4868727;29;7252;-60
2022/12/24 03:13:25;;;;;;;;;;;;;;;25.90;41.51;94134.00;4898921;29;9389;-60
2022/12/24 03:16:12;;;;;;;;;;;;;;;25.88;42.25;94128.25;4937501;28;7003;-63
2022/12/24 03:18:52;;;;;;;;;;;;;;;25.88;42.02;94125.50;4979713;28;7062;-63
2022/12/24 03:21:36;;;;;;;;;;;;;;;25.87;41.65;94107.50;4979884;28;9854;-62
2022/12/24 03:24:04;;;;;;;;;;;;;;;25.87;41.85;94110.25;4978719;28;7603;-62
2022/12/24 03:26:32;;;;;;;;;;;;;;;25.86;41.90;94119.75;4990288;28;7435;-62
2022/12/24 03:29:08;;;;;;;;;;;;;;;25.88;41.58;94133.75;4982463;28;7530;-63
2022/12/24 03:31:49;;;;;;;;;;;;;;;25.90;41.16;94109.19;4992657;28;9160;-63
2022/12/24 03:34:18;;;;;;;;;;;;;;;25.91;41.70;94105.19;4985447;28;7213;-63
2022/12/24 03:36:47;;;;;;;;;;;;;;;25.92;41.41;94106.69;4995605;28;7097;-63
2022/12/24 03:39:20;;;;;;;;;;;;;;;25.92;41.75;94128.72;5012204;28;9543;-63
2022/12/24 03:41:52;;;;;;;;;;;;;;;25.90;41.50;94128.47;5011687;28;9180;-62
2022/12/24 03:44:27;;;;;;;;;;;;;;;25.90;41.88;94131.22;4998480;28;7230;-62
2022/12/24 03:46:53;;;;;;;;;;;;;;;25.90;41.76;94136.75;4994421;28;8276;-63
2022/12/24 03:49:19;;;;;;;;;;;;;;;25.90;41.77;94147.75;4974065;28;7448;-63
2022/12/24 03:51:45;;;;;;;;;;;;;;;25.90;41.37;94136.75;4992242;28;8691;-62
2022/12/24 03:54:20;;;;;;;;;;;;;;;25.88;41.41;94130.28;4995180;28;7270;-63
2022/12/24 03:56:59;;;;;;;;;;;;;;;25.89;40.98;94129.75;4996720;28;7513;-63
2022/12/24 03:59:37;;;;;;;;;;;;;;;25.88;41.82;94128.25;5010075;28;7446;-62
2022/12/24 04:02:07;;;;;;;;;;;;;;;25.88;42.12;94136.53;5003867;28;7359;-63
2022/12/24 04:05:00;;;;;;;;;;;;;;;25.87;41.09;94137.81;4992092;28;7196;-63
2022/12/24 04:07:28;;;;;;;;;;;;;;;25.87;41.18;94137.81;4939577;28;7167;-63
2022/12/24 04:10:26;;;;;;;;;;;;;;;25.89;41.97;94162.06;4945969;28;7307;-63
2022/12/24 04:12:52;;;;;;;;;;;;;;;25.86;41.88;94168.63;4915915;29;8445;-62
2022/12/24 04:15:17;;;;;;;;;;;;;;;25.88;41.88;94152.34;4916954;29;8700;-63
2022/12/24 04:17:52;;;;;;;;;;;;;;;25.92;41.98;94161.03;4917188;29;7011;-62
2022/12/24 04:20:28;;;;;;;;;;;;;;;25.88;41.39;94155.81;4916716;29;9331;-62
2022/12/24 04:22:59;;;;;;;;;;;;;;;25.88;41.56;94155.81;4901834;29;9041;-62
2022/12/24 04:25:25;;;;;;;;;;;;;;;25.87;41.23;94143.31;4908669;29;8988;-62
2022/12/24 04:27:51;;;;;;;;;;;;;;;25.86;41.99;94152.81;4912544;29;7315;-62
2022/12/24 04:30:19;;;;;;;;;;;;;;;25.86;41.98;94180.38;4916982;29;7141;-62
2022/12/24 04:32:57;;;;;;;;;;;;;;;25.86;41.81;94180.38;4915695;29;7443;-61
2022/12/24 04:35:32;;;;;;;;;;;;;;;25.85;41.94;94176.16;4915202;29;7252;-62
2022/12/24 04:38:10;;;;;;;;;;;;;;;25.84;41.52;94177.41;4900004;29;7365;-62
2022/12/24 04:40:49;;;;;;;;;;;;;;;25.85;41.23;94173.38;4899004;29;9073;-62
2022/12/24 04:43:39;;;;;;;;;;;;;;;25.88;41.33;94182.63;4918709;28;7409;-62
2022/12/24 04:46:26;;;;;;;;;;;;;;;25.87;41.40;94201.16;4938059;28;7364;-62
2022/12/24 04:48:57;;;;;;;;;;;;;;;25.85;41.30;94200.94;4986845;28;7244;-61
2022/12/24 04:51:34;;;;;;;;;;;;;;;25.84;41.25;94213.22;4993794;28;9447;-63
2022/12/24 04:54:24;;;;;;;;;;;;;;;25.84;41.95;94191.19;5014771;28;7134;-62
2022/12/24 04:56:56;;;;;;;;;;;;;;;25.83;41.93;94206.22;4994732;28;7912;-62
2022/12/24 04:59:33;;;;;;;;;;;;;;;25.82;41.77;94212.22;4993659;28;7301;-62
2022/12/24 05:02:00;;;;;;;;;;;;;;;25.82;41.50;94229.53;4988367;28;7216;-62
2022/12/24 05:04:27;;;;;;;;;;;;;;;25.81;41.09;94227.28;4994864;28;7333;-62
2022/12/24 05:06:56;;;;;;;;;;;;;;;25.83;41.72;94231.03;4991467;28;7048;-62
2022/12/24 05:09:25;;;;;;;;;;;;;;;25.80;41.88;94223.03;4995799;28;7426;-62
2022/12/24 05:11:58;;;;;;;;;;;;;;;25.83;41.15;94219.25;5010946;28;8528;-62
2022/12/24 05:14:26;;;;;;;;;;;;;;;25.82;41.22;94220.50;4995044;28;7155;-62
2022/12/24 05:16:53;;;;;;;;;;;;;;;25.82;41.22;94215.75;4994630;28;7029;-62
2022/12/24 05:19:19;;;;;;;;;;;;;;;25.81;41.94;94228.03;4993044;28;8352;-62
2022/12/24 05:26:20;;;;;;;;;;;;;;;25.82;41.76;94234.28;4990503;28;7413;-62
2022/12/24 05:27:15;;;;;;;;;;;;;;;25.83;41.48;94231.03;4992881;28;7479;-62
2022/12/24 05:29:45;;;;;;;;;;;;;;;25.82;41.12;94239.78;4987592;28;10584;-62
2022/12/24 05:32:44;;;;;;;;;;;;;;;25.82;42.07;94224.00;4991482;28;7085;-63
2022/12/24 05:35:28;;;;;;;;;;;;;;;25.83;41.13;94224.75;4945541;28;8241;-63
2022/12/24 05:37:59;;;;;;;;;;;;;;;25.83;41.85;94231.03;4954094;28;7038;-62
2022/12/24 05:40:36;;;;;;;;;;;;;;;25.83;41.45;94230.28;4946255;28;8260;-62
2022/12/24 05:43:12;;;;;;;;;;;;;;;25.79;41.72;94232.56;4927165;28;8964;-62
2022/12/24 05:45:42;;;;;;;;;;;;;;;25.79;41.67;94225.06;4936873;28;9430;-63
2022/12/24 05:48:09;;;;;;;;;;;;;;;25.79;41.75;94233.31;4937776;28;8922;-63
2022/12/24 05:50:52;;;;;;;;;;;;;;;25.79;41.48;94235.31;4951791;28;7291;-62
2022/12/24 05:53:28;;;;;;;;;;;;;;;25.77;41.92;94238.59;4937402;28;8440;-63
2022/12/24 05:56:07;;;;;;;;;;;;;;;25.79;42.23;94238.84;4924666;28;7102;-62
2022/12/24 05:58:49;;;;;;;;;;;;;;;25.79;42.11;94247.09;4938695;28;8482;-63
2022/12/24 06:01:15;;;;;;;;;;;;;;;25.74;42.23;94244.38;4951999;28;9333;-63
2022/12/24 06:03:41;;;;;;;;;;;;;;;25.76;41.94;94259.13;4941559;28;9339;-63
2022/12/24 06:06:25;;;;;;;;;;;;;;;25.78;42.71;94255.84;4954071;28;9698;-63
2022/12/24 06:08:59;;;;;;;;;;;;;;;25.76;42.27;94261.91;4949446;28;7106;-63
2022/12/24 06:11:43;;;;;;;;;;;;;;;25.77;41.81;94259.88;4983613;28;7048;-63
2022/12/24 06:14:14;;;;;;;;;;;;;;;25.75;42.00;94251.41;4992276;28;7038;-63
2022/12/24 06:16:50;;;;;;;;;;;;;;;25.72;41.56;94258.69;4986254;28;7046;-63
2022/12/24 06:19:23;;;;;;;;;;;;;;;25.72;42.39;94269.69;5009032;28;7104;-63
2022/12/24 06:21:48;;;;;;;;;;;;;;;25.74;41.98;94260.91;4992507;28;7025;-62
2022/12/24 06:24:14;;;;;;;;;;;;;;;25.75;42.17;94267.94;5005665;28;7912;-62
2022/12/24 06:26:40;;;;;;;;;;;;;;;25.76;42.20;94270.16;4994205;28;6991;-62
2022/12/24 06:29:11;;;;;;;;;;;;;;;25.75;41.14;94268.66;5008858;28;7404;-62
2022/12/24 06:31:53;;;;;;;;;;;;;;;25.77;41.25;94279.19;4987831;28;7285;-62
2022/12/24 06:34:23;;;;;;;;;;;;;;;25.78;42.43;94283.41;4991251;28;9097;-62
2022/12/24 06:36:49;;;;;;;;;;;;;;;25.78;42.29;94286.16;4989832;28;7572;-62
2022/12/24 06:39:15;;;;;;;;;;;;;;;25.77;42.32;94301.97;4989502;28;7271;-62
2022/12/24 06:41:41;;;;;;;;;;;;;;;25.78;42.44;94295.19;4987589;28;6989;-62
2022/12/24 06:44:11;;;;;;;;;;;;;;;25.76;42.08;94303.22;4966357;28;7681;-62
2022/12/24 06:46:37;;;;;;;;;;;;;;;25.74;41.74;94297.47;4987991;28;7152;-62
2022/12/24 06:49:03;;;;;;;;;;;;;;;25.75;41.46;94296.19;4983586;28;7223;-62
2022/12/24 06:51:33;;;;;;;;;;;;;;;25.75;42.13;94312.72;5008418;28;6978;-62
2022/12/24 06:54:08;;;;;;;;;;;;;;;25.76;43.21;94311.47;5008244;28;7269;-62
2022/12/24 06:56:48;;;;;;;;;;;;;;;25.75;42.48;94312.72;5006598;28;7386;-62
2022/12/24 06:59:15;;;;;;;;;;;;;;;25.77;41.97;94303.97;4990028;28;7212;-61
2022/12/24 07:01:53;;;;;;;;;;;;;;;25.76;42.34;94294.94;5006600;28;8365;-62
2022/12/24 07:04:29;;;;;;;;;;;;;;;25.76;42.60;94311.47;5005461;28;7398;-62
2022/12/24 07:06:56;;;;;;;;;;;;;;;25.75;43.13;94314.75;5002581;28;7297;-62
2022/12/24 07:09:23;;;;;;;;;;;;;;;25.77;43.00;94329.53;4986520;28;7353;-62
2022/12/24 07:11:49;;;;;;;;;;;;;;;25.78;43.68;94319.97;4981975;28;7120;-63
2022/12/24 07:14:15;;;;;;;;;;;;;;;25.80;44.42;94322.97;4983750;28;9228;-62
2022/12/24 07:16:44;;;;;;;;;;;;;;;25.79;43.79;94326.25;4986328;28;7210;-63
2022/12/24 07:19:19;;;;;;;;;;;;;;;25.81;43.36;94334.75;4991521;28;8749;-62
2022/12/24 07:21:46;;;;;;;;;;;;;;;25.80;43.52;94330.47;4991457;28;7498;-62
2022/12/24 07:24:12;;;;;;;;;;;;;;;25.82;44.10;94330.72;5004350;28;7399;-63
2022/12/24 07:26:40;;;;;;;;;;;;;;;25.81;43.62;94341.00;4997181;28;9710;-62
2022/12/24 07:29:08;;;;;;;;;;;;;;;25.82;43.44;94348.00;5005601;28;7451;-63
2022/12/24 07:31:33;;;;;;;;;;;;;;;25.86;43.63;94353.25;4991051;28;7114;-62
2022/12/24 07:34:03;;;;;;;;;;;;;;;25.87;43.78;94360.22;4988444;28;6981;-63
2022/12/24 07:36:34;;;;;;;;;;;;;;;25.87;43.64;94352.72;5006698;28;7028;-62
2022/12/24 07:39:03;;;;;;;;;;;;;;;25.88;43.33;94356.97;4993945;28;9174;-62
2022/12/24 07:41:50;;;;;;;;;;;;;;;25.93;43.53;94360.94;5006138;28;7022;-63
2022/12/24 07:44:26;;;;;;;;;;;;;;;25.92;43.73;94351.94;4992557;28;7188;-62
2022/12/24 07:47:02;;;;;;;;;;;;;;;25.94;44.12;94367.94;5005198;28;7045;-62
2022/12/24 07:49:45;;;;;;;;;;;;;;;25.94;44.15;94368.69;4986528;28;7219;-62
2022/12/24 07:52:24;;;;;;;;;;;;;;;25.91;44.33;94361.44;5006148;28;7420;-62
2022/12/24 07:55:09;;;;;;;;;;;;;;;25.92;43.58;94382.25;5008846;28;7076;-62
2022/12/24 07:57:52;;;;;;;;;;;;;;;25.89;44.52;94383.25;5005183;28;7214;-62
2022/12/24 08:00:18;;;;;;;;;;;;;;;25.88;43.96;94370.72;4987862;28;8917;-62
2022/12/24 08:02:44;;;;;;;;;;;;;;;25.91;43.51;94375.22;4986332;28;7238;-62
2022/12/24 08:05:19;;;;;;;;;;;;;;;25.91;44.40;94375.22;5003749;28;7068;-62
2022/12/24 08:07:46;;;;;;;;;;;;;;;25.89;43.67;94377.75;5003733;28;7277;-62
2022/12/24 08:10:14;;;;;;;;;;;;;;;25.90;44.13;94370.25;4988073;28;7137;-62
2022/12/24 08:12:41;;;;;;;;;;;;;;;25.90;43.84;94382.00;5008669;28;7230;-62
2022/12/24 08:15:10;;;;;;;;;;;;;;;25.89;43.58;94385.25;5008537;28;7414;-62
2022/12/24 08:17:36;;;;;;;;;;;;;;;25.89;43.38;94388.03;5009926;28;7309;-62
2022/12/24 08:20:04;;;;;;;;;;;;;;;25.88;44.29;94387.25;5001532;28;9123;-62
2022/12/24 08:22:32;;;;;;;;;;;;;;;25.89;44.20;94391.53;4989066;28;7282;-62
2022/12/24 08:25:00;;;;;;;;;;;;;;;25.82;43.84;94383.81;4992506;28;7108;-62
2022/12/24 08:27:29;;;;;;;;;;;;;;;25.81;43.59;94381.56;4995235;28;7567;-63
2022/12/24 08:30:05;;;;;;;;;;;;;;;25.84;43.92;94391.56;4991718;28;7045;-62
2022/12/24 08:32:33;;;;;;;;;;;;;;;25.81;43.84;94385.09;5001343;28;7672;-62
2022/12/24 08:35:05;;;;;;;;;;;;;;;25.79;43.83;94368.31;5010258;28;7605;-61
2022/12/24 08:37:35;;;;;;;;;;;;;;;25.78;44.63;94371.56;4990288;28;6976;-62
2022/12/24 08:40:04;;;;;;;;;;;;;;;25.83;44.46;94374.28;4990651;28;7862;-62
2022/12/24 08:42:37;;;;;;;;;;;;;;;25.83;43.89;94371.53;4996444;28;7275;-62
2022/12/24 08:45:05;;;;;;;;;;;;;;;25.85;43.48;94371.78;5006935;28;7050;-62
2022/12/24 08:47:31;;;;;;;;;;;;;;;25.86;44.36;94362.22;4991113;28;8283;-63
2022/12/24 08:50:00;;;;;;;;;;;;;;;25.87;43.77;94372.00;4992357;28;6955;-63
2022/12/24 08:52:38;;;;;;;;;;;;;;;25.88;43.72;94387.25;4988783;28;7020;-62
2022/12/24 08:55:07;;;;;;;;;;;;;;;25.87;43.82;94385.78;5007286;28;7285;-62
2022/12/24 08:57:48;;;;;;;;;;;;;;;25.87;43.14;94393.31;5008378;28;7414;-63
2022/12/24 09:00:48;;;;;;;;;;;;;;;25.87;43.56;94396.81;4992361;28;9066;-62
2022/12/24 09:03:33;;;;;;;;;;;;;;;25.87;42.43;94402.31;4950422;28;8836;-62
2022/12/24 09:06:03;;;;;;;;;;;;;;;25.86;43.01;94413.84;4954907;28;7172;-62
2022/12/24 09:08:32;;;;;;;;;;;;;;;25.82;43.35;94411.38;4935697;28;9017;-62
2022/12/24 09:11:07;;;;;;;;;;;;;;;25.82;43.34;94419.63;4948605;28;9226;-62
2022/12/24 09:13:34;;;;;;;;;;;;;;;25.82;43.08;94418.88;4944058;28;7277;-62
2022/12/24 09:16:02;;;;;;;;;;;;;;;25.82;43.83;94427.91;4950223;28;7058;-62
2022/12/24 09:18:32;;;;;;;;;;;;;;;25.76;44.43;94423.69;4944313;28;7310;-62
2022/12/24 09:21:00;;;;;;;;;;;;;;;25.77;44.22;94412.16;4933217;28;7260;-63
2022/12/24 09:23:27;;;;;;;;;;;;;;;25.76;44.05;94405.16;4949079;28;7372;-62
2022/12/24 09:25:53;;;;;;;;;;;;;;;25.79;44.33;94395.88;4946692;28;7462;-62
2022/12/24 09:28:59;;;;;;;;;;;;;;;25.81;44.01;94395.34;4920477;28;7291;-62
2022/12/24 09:31:26;;;;;;;;;;;;;;;25.82;44.98;94399.59;4947895;28;9147;-61
2022/12/24 09:33:52;;;;;;;;;;;;;;;25.81;44.77;94398.09;4938346;28;9309;-60
2022/12/24 09:36:29;;;;;;;;;;;;;;;25.82;45.65;94394.84;4939730;28;8734;-61
2022/12/24 09:38:57;;;;;;;;;;;;;;;25.82;44.93;94405.09;4946392;28;8564;-61
2022/12/24 09:41:38;;;;;;;;;;;;;;;25.83;45.29;94407.38;4984051;28;7228;-61
2022/12/24 09:44:32;;;;;;;;;;;;;;;25.84;44.33;94408.84;5003727;28;7746;-61
2022/12/24 09:47:33;;;;;;;;;;;;;;;25.85;45.04;94407.59;4991945;28;9911;-61
2022/12/24 09:50:08;;;;;;;;;;;;;;;25.86;44.94;94411.84;4998781;28;7312;-60
2022/12/24 09:52:44;;;;;;;;;;;;;;;25.90;45.35;94401.28;5007278;28;7780;-61
2022/12/24 09:55:31;;;;;;;;;;;;;;;25.91;44.31;94408.28;5002418;28;7268;-61
2022/12/24 09:58:01;;;;;;;;;;;;;;;25.90;44.87;94417.81;4990891;28;7050;-60
2022/12/24 10:00:36;;;;;;;;;;;;;;;25.89;45.17;94399.03;5005403;28;7846;-61
2022/12/24 10:03:22;;;;;;;;;;;;;;;25.89;44.84;94410.81;5000498;28;9195;-61
2022/12/24 10:06:04;;;;;;;;;;;;;;;25.88;44.92;94406.56;4989869;28;9383;-60
2022/12/24 10:08:59;;;;;;;;;;;;;;;25.90;44.50;94411.56;5003705;28;7017;-61
2022/12/24 10:11:54;;;;;;;;;;;;;;;25.88;45.20;94412.06;5004754;28;8314;-61
2022/12/24 10:14:48;;;;;;;;;;;;;;;25.91;45.21;94408.28;5005745;28;8255;-61
2022/12/24 10:18:05;;;;;;;;;;;;;;;25.92;44.66;94420.06;4991087;28;7107;-60
2022/12/24 10:20:47;;;;;;;;;;;;;;;25.90;45.47;94422.59;4968705;28;8577;-61
2022/12/24 10:23:24;;;;;;;;;;;;;;;25.89;45.36;94415.56;4953118;28;8978;-62
2022/12/24 10:26:08;;;;;;;;;;;;;;;25.87;45.33;94418.09;4965940;28;8695;-63
2022/12/24 10:28:47;;;;;;;;;;;;;;;25.88;45.01;94405.81;4965564;28;8578;-61
2022/12/24 10:31:18;;;;;;;;;;;;;;;25.88;44.97;94414.09;4947856;28;7145;-63
2022/12/24 10:34:15;;;;;;;;;;;;;;;25.87;45.11;94413.34;4949473;28;9459;-63
2022/12/24 10:36:41;;;;;;;;;;;;;;;25.88;44.60;94419.59;4948823;28;7034;-61
2022/12/24 10:39:26;;;;;;;;;;;;;;;25.87;44.33;94427.13;4942150;28;8326;-62
2022/12/24 10:41:58;;;;;;;;;;;;;;;25.87;44.84;94429.88;4965911;28;7302;-62
2022/12/24 10:44:33;;;;;;;;;;;;;;;25.87;44.38;94424.38;4948142;28;7064;-61
2022/12/24 10:47:09;;;;;;;;;;;;;;;25.87;44.77;94429.88;4950418;28;7213;-62
2022/12/24 10:49:47;;;;;;;;;;;;;;;25.87;44.97;94432.63;4945644;28;10361;-62
2022/12/24 10:52:23;;;;;;;;;;;;;;;25.89;45.00;94432.88;4966921;28;7275;-61
2022/12/24 10:55:18;;;;;;;;;;;;;;;25.90;45.43;94423.31;4961074;28;7352;-62
2022/12/24 10:58:12;;;;;;;;;;;;;;;25.90;45.48;94423.31;4984370;28;7236;-61
2022/12/24 11:00:42;;;;;;;;;;;;;;;25.92;45.37;94417.31;4987656;28;7579;-62
2022/12/24 11:03:11;;;;;;;;;;;;;;;25.91;45.11;94408.28;4996900;28;7250;-63
2022/12/24 11:05:39;;;;;;;;;;;;;;;25.90;44.88;94409.53;4985130;28;7684;-62
2022/12/24 11:08:18;;;;;;;;;;;;;;;25.88;45.22;94401.03;4984677;28;6985;-62
2022/12/24 11:11:04;;;;;;;;;;;;;;;25.89;45.49;94405.31;5003199;28;7494;-63
2022/12/24 11:13:37;;;;;;;;;;;;;;;25.86;45.23;94405.59;4987750;28;7213;-63
2022/12/24 11:16:32;;;;;;;;;;;;;;;25.84;45.76;94397.06;4971864;28;8989;-61
2022/12/24 11:19:04;;;;;;;;;;;;;;;25.84;45.30;94394.31;4986603;28;7124;-61
2022/12/24 11:21:40;;;;;;;;;;;;;;;25.82;46.04;94394.84;4990403;28;7286;-62
2022/12/24 11:24:12;;;;;;;;;;;;;;;25.82;45.29;94397.59;5003489;28;7023;-60
2022/12/24 11:26:40;;;;;;;;;;;;;;;25.83;45.86;94399.09;4988936;28;7112;-62
2022/12/24 11:29:24;;;;;;;;;;;;;;;25.86;45.17;94392.53;4987491;28;7172;-62
2022/12/24 11:32:17;;;;;;;;;;;;;;;25.87;45.54;94390.53;4985794;28;8468;-63
2022/12/24 11:34:49;;;;;;;;;;;;;;;25.87;46.31;94387.78;5001578;28;7269;-64
2022/12/24 11:37:25;;;;;;;;;;;;;;;25.88;46.49;94387.25;4987798;28;7693;-63
2022/12/24 11:39:59;;;;;;;;;;;;;;;25.76;46.45;94390.63;4993136;28;7045;-63
2022/12/24 11:42:27;;;;;;;;;;;;;;;25.92;46.50;94382.25;4983443;28;8191;-63
2022/12/24 11:44:58;;;;;;;;;;;;;;;25.98;45.78;94387.69;4998791;28;7267;-65
2022/12/24 11:47:52;;;;;;;;;;;;;;;26.10;46.14;94375.34;5001215;28;7020;-65
2022/12/24 11:50:31;;;;;;;;;;;;;;;26.25;45.19;94386.00;4984785;28;6936;-62
2022/12/24 11:53:24;;;;;;;;;;;;;;;26.27;45.04;94386.25;4988092;28;9301;-62
2022/12/24 11:55:58;;;;;;;;;;;;;;;26.31;45.04;94386.69;4997311;28;7495;-62
2022/12/24 11:58:37;;;;;;;;;;;;;;;26.31;45.54;94386.69;4982980;28;7837;-62
2022/12/24 12:01:44;;;;;;;;;;;;;;;26.27;46.22;94387.00;4985737;28;10112;-62
2022/12/24 12:04:34;;;;;;;;;;;;;;;26.38;45.65;94378.59;5007972;28;7281;-62
2022/12/24 12:07:32;;;;;;;;;;;;;;;26.39;45.46;94388.38;4993244;28;8514;-62
2022/12/24 12:10:07;;;;;;;;;;;;;;;26.33;45.58;94381.41;5002459;28;7257;-61
2022/12/24 12:12:43;;;;;;;;;;;;;;;26.24;45.48;94379.75;5008067;28;7341;-63
2022/12/24 12:15:47;;;;;;;;;;;;;;;26.22;45.70;94387.78;4985611;28;9299;-62
2022/12/24 12:18:35;;;;;;;;;;;;;;;26.25;45.44;94388.75;4974989;28;7097;-61
2022/12/24 12:21:41;;;;;;;;;;;;;;;26.24;45.61;94396.28;4991565;28;7148;-61
2022/12/24 12:24:18;;;;;;;;;;;;;;;26.25;45.24;94397.78;4922226;29;7112;-63
2022/12/24 12:26:47;;;;;;;;;;;;;;;26.24;45.47;94392.78;4904912;29;7933;-62
2022/12/24 12:29:30;;;;;;;;;;;;;;;26.21;45.33;94386.28;4928096;29;9033;-64
2022/12/24 12:32:06;;;;;;;;;;;;;;;26.20;46.11;94379.28;4919528;29;7043;-63
2022/12/24 12:35:01;;;;;;;;;;;;;;;26.11;45.73;94380.34;4926388;29;7958;-62
2022/12/24 12:37:39;;;;;;;;;;;;;;;26.08;45.92;94375.88;4913898;29;7053;-63
2022/12/24 12:40:14;;;;;;;;;;;;;;;26.07;46.33;94368.84;4930185;29;7117;-63
2022/12/24 12:43:15;;;;;;;;;;;;;;;26.11;46.17;94365.81;4909182;29;7043;-63
2022/12/24 12:46:17;;;;;;;;;;;;;;;26.11;46.43;94374.84;4933097;28;8955;-64
2022/12/24 12:49:20;;;;;;;;;;;;;;;26.13;46.09;94366.81;4893194;29;6871;-61
2022/12/24 12:52:20;;;;;;;;;;;;;;;26.19;46.09;94366.03;4889957;29;8986;-63
2022/12/24 12:55:24;;;;;;;;;;;;;;;26.16;45.75;94363.00;4894282;29;7284;-63
2022/12/24 12:57:56;;;;;;;;;;;;;;;26.17;45.65;94359.00;4904659;29;8994;-62
2022/12/24 13:00:26;;;;;;;;;;;;;;;26.16;45.38;94357.50;4944569;28;7704;-62
2022/12/24 13:03:05;;;;;;;;;;;;;;;26.16;45.27;94357.50;4955315;28;7037;-63
2022/12/24 13:05:40;;;;;;;;;;;;;;;26.13;45.16;94357.78;4944752;28;7058;-62
2022/12/24 13:08:21;;;;;;;;;;;;;;;26.10;45.39;94356.81;4950202;28;7259;-63
2022/12/24 13:10:53;;;;;;;;;;;;;;;26.10;44.68;94359.56;4948521;28;7995;-63
2022/12/24 13:13:37;;;;;;;;;;;;;;;26.11;44.97;94368.59;4936046;28;7146;-63
2022/12/24 13:16:25;;;;;;;;;;;;;;;26.10;44.88;94367.81;4954455;28;7178;-61
2022/12/24 13:19:06;;;;;;;;;;;;;;;26.10;44.51;94370.59;4941498;28;7640;-64
2022/12/24 13:21:53;;;;;;;;;;;;;;;26.11;44.69;94382.34;4953484;28;7805;-64
2022/12/24 13:24:26;;;;;;;;;;;;;;;26.10;44.55;94369.81;4958175;28;7040;-64
2022/12/24 13:27:05;;;;;;;;;;;;;;;26.11;44.33;94374.84;4996471;28;6990;-62
2022/12/24 13:29:34;;;;;;;;;;;;;;;26.11;44.05;94361.06;5006912;28;6977;-64
2022/12/24 13:32:18;;;;;;;;;;;;;;;26.11;44.85;94352.03;5007309;28;9760;-62
2022/12/24 13:34:56;;;;;;;;;;;;;;;26.12;44.63;94351.53;4990131;28;7402;-62
2022/12/24 13:37:34;;;;;;;;;;;;;;;26.12;44.56;94351.53;5008379;28;9026;-63
2022/12/24 13:40:09;;;;;;;;;;;;;;;26.14;44.32;94345.50;4991372;28;7051;-63
2022/12/24 13:43:00;;;;;;;;;;;;;;;26.13;44.62;94333.72;4990867;28;7060;-63
2022/12/24 13:45:37;;;;;;;;;;;;;;;26.16;44.63;94346.47;5009239;28;7325;-63
2022/12/24 13:48:06;;;;;;;;;;;;;;;26.16;44.01;94332.69;5005384;28;7116;-63
2022/12/24 13:50:58;;;;;;;;;;;;;;;26.16;44.56;94334.72;4988625;28;9053;-62
2022/12/24 13:53:35;;;;;;;;;;;;;;;26.16;44.16;94324.41;4991284;28;7251;-63
2022/12/24 13:56:17;;;;;;;;;;;;;;;26.14;44.39;94329.69;4988784;28;9070;-62